createdAt,value
2018-06-28T00:01:27.689Z,101554.69
2018-06-28T00:03:57.869Z,101551.56
2018-06-28T00:06:28.137Z,101549.98
2018-06-28T00:08:58.400Z,101550.70
2018-06-28T00:11:28.449Z,101548.14
2018-06-28T00:13:58.624Z,101551.56
2018-06-28T00:16:28.636Z,101549.38
2018-06-28T00:18:58.963Z,101546.47
2018-06-28T00:21:29.243Z,101550.70
2018-06-28T00:23:59.527Z,101545.02
2018-06-28T00:26:29.751Z,101556.39
2018-06-28T00:28:59.996Z,101548.91
2018-06-28T00:31:30.227Z,101554.56
2018-06-28T00:34:00.472Z,101544.67
2018-06-28T00:36:30.775Z,101554.22
2018-06-28T00:39:01.066Z,101550.23
2018-06-28T00:41:31.362Z,101549.85
2018-06-28T00:44:01.626Z,101551.56
2018-06-28T00:46:33.072Z,101556.39
2018-06-28T00:49:03.263Z,101551.56
2018-06-28T00:51:33.391Z,101548.44
2018-06-28T00:54:03.374Z,101544.55
2018-06-28T00:56:33.531Z,101541.52
2018-06-28T00:59:03.783Z,101550.58
2018-06-28T01:01:33.862Z,101554.09
2018-06-28T01:04:04.000Z,101555.07
2018-06-28T01:06:34.260Z,101552.03
2018-06-28T01:09:06.568Z,101555.55
2018-06-28T01:11:36.820Z,101557.22
2018-06-28T01:14:07.103Z,101557.81
2018-06-28T01:16:37.872Z,101559.05
2018-06-28T01:19:08.845Z,101562.53
2018-06-28T01:21:39.164Z,101561.70
2018-06-28T01:24:09.309Z,101563.51
2018-06-28T01:26:39.305Z,101563.85
2018-06-28T01:29:09.491Z,101560.94
2018-06-28T01:31:39.731Z,101562.05
2018-06-28T01:34:09.763Z,101562.91
2018-06-28T01:36:39.890Z,101558.20
2018-06-28T01:39:11.610Z,101559.88
2018-06-28T01:41:59.109Z,101555.89
2018-06-28T01:44:29.377Z,101559.05
2018-06-28T01:46:59.651Z,101554.30
2018-06-28T01:49:29.896Z,101561.70
2018-06-28T01:52:00.128Z,101558.55
2018-06-28T01:54:30.440Z,101553.74
2018-06-28T01:57:00.714Z,101555.89
2018-06-28T01:59:30.969Z,101555.89
2018-06-28T02:02:01.207Z,101552.98
2018-06-28T02:04:31.631Z,101551.66
2018-06-28T02:07:01.938Z,101563.03
2018-06-28T02:09:32.191Z,101560.38
2018-06-28T02:12:02.448Z,101558.20
2018-06-28T02:14:32.712Z,101557.81
2018-06-28T02:17:03.054Z,101562.17
2018-06-28T02:19:33.347Z,101558.20
2018-06-28T02:22:03.642Z,101559.05
2018-06-28T02:24:33.943Z,101558.29
2018-06-28T02:27:04.227Z,101560.00
2018-06-28T02:29:34.759Z,101563.03
2018-06-28T02:32:05.003Z,101558.67
2018-06-28T02:34:35.500Z,101553.36
2018-06-28T02:37:05.819Z,101546.73
2018-06-28T02:39:36.062Z,101549.38
2018-06-28T02:42:06.613Z,101546.09
2018-06-28T02:44:36.906Z,101549.38
2018-06-28T02:47:07.173Z,101551.18
2018-06-28T02:49:37.470Z,101549.38
2018-06-28T02:52:07.744Z,101554.69
2018-06-28T02:54:38.027Z,101550.70
2018-06-28T02:57:08.300Z,101556.39
2018-06-28T02:59:38.731Z,101548.27
2018-06-28T03:02:08.951Z,101551.66
2018-06-28T03:04:39.289Z,101557.34
2018-06-28T03:07:09.554Z,101558.20
2018-06-28T03:09:39.816Z,101558.67
2018-06-28T03:12:10.126Z,101560.94
2018-06-28T03:14:40.422Z,101564.45
2018-06-28T03:17:10.738Z,101563.98
2018-06-28T03:19:41.098Z,101566.63
2018-06-28T03:22:11.474Z,101566.84
2018-06-28T03:24:41.538Z,101567.48
2018-06-28T03:27:11.736Z,101568.17
2018-06-28T03:29:41.983Z,101569.03
2018-06-28T03:32:12.252Z,101573.27
2018-06-28T03:34:42.296Z,101570.70
2018-06-28T03:37:12.419Z,101579.91
2018-06-28T03:39:42.693Z,101569.29
2018-06-28T03:42:13.179Z,101576.87
2018-06-28T03:44:43.602Z,101567.58
2018-06-28T03:47:13.983Z,101576.87
2018-06-28T03:49:44.214Z,101577.72
2018-06-28T03:52:14.622Z,101572.16
2018-06-28T03:54:44.979Z,101581.61
2018-06-28T03:57:15.294Z,101580.28
2018-06-28T03:59:45.580Z,101573.27
2018-06-28T04:02:15.861Z,101579.17
2018-06-28T04:04:46.195Z,101584.62
2018-06-28T04:07:16.432Z,101585.94
2018-06-28T04:09:46.923Z,101585.09
2018-06-28T04:12:17.262Z,101582.94
2018-06-28T04:14:47.512Z,101577.62
2018-06-28T04:17:17.790Z,101581.23
2018-06-28T04:19:48.094Z,101580.63
2018-06-28T04:22:23.282Z,101579.91
2018-06-28T04:24:53.627Z,101584.62
2018-06-28T04:27:23.972Z,101583.20
2018-06-28T04:29:54.077Z,101583.67
2018-06-28T04:32:24.530Z,101579.69
2018-06-28T04:34:54.855Z,101573.91
2018-06-28T04:37:25.091Z,101577.50
2018-06-28T04:39:55.549Z,101573.65
2018-06-28T04:42:25.771Z,101578.36
2018-06-28T04:44:56.003Z,101577.89
2018-06-28T04:47:26.329Z,101580.89
2018-06-28T04:49:56.672Z,101570.48
2018-06-28T04:52:26.890Z,101575.70
2018-06-28T04:54:57.160Z,101569.07
2018-06-28T04:57:27.546Z,101575.70
2018-06-28T04:59:57.830Z,101572.92
2018-06-28T05:02:27.952Z,101569.07
2018-06-28T05:04:58.111Z,101569.80
2018-06-28T05:07:28.369Z,101567.84
2018-06-28T05:09:58.646Z,101577.77
2018-06-28T05:12:28.911Z,101573.40
2018-06-28T05:14:59.293Z,101573.40
2018-06-28T05:17:30.507Z,101566.03
2018-06-28T05:20:00.653Z,101563.64
2018-06-28T05:22:30.840Z,101555.80
2018-06-28T05:25:01.317Z,101554.34
2018-06-28T05:27:31.580Z,101559.18
2018-06-28T05:30:01.876Z,101556.91
2018-06-28T05:32:32.162Z,101553.40
2018-06-28T05:35:02.520Z,101558.70
2018-06-28T05:37:32.832Z,101553.88
2018-06-28T05:40:03.009Z,101560.51
2018-06-28T05:42:33.291Z,101557.38
2018-06-28T05:45:03.651Z,101560.89
2018-06-28T05:47:33.961Z,101569.67
2018-06-28T05:50:04.229Z,101570.53
2018-06-28T05:52:34.525Z,101564.87
2018-06-28T05:55:04.914Z,101563.55
2018-06-28T05:57:35.172Z,101568.34
2018-06-28T06:00:06.114Z,101571.86
2018-06-28T06:02:36.409Z,101572.71
2018-06-28T06:05:06.694Z,101566.07
2018-06-28T06:07:36.956Z,101568.98
2018-06-28T06:10:07.295Z,101577.80
2018-06-28T06:12:37.539Z,101571.29
2018-06-28T06:15:07.992Z,101576.22
2018-06-28T06:17:38.275Z,101576.59
2018-06-28T06:20:09.143Z,101577.92
2018-06-28T06:22:39.394Z,101575.27
2018-06-28T06:25:09.709Z,101572.23
2018-06-28T06:27:39.825Z,101573.95
2018-06-28T06:30:10.566Z,101576.09
2018-06-28T06:32:40.840Z,101578.27
2018-06-28T06:35:11.110Z,101573.19
2018-06-28T06:37:41.423Z,101578.66
2018-06-28T06:40:11.788Z,101575.27
2018-06-28T06:42:42.090Z,101568.25
2018-06-28T06:45:12.338Z,101565.85
2018-06-28T06:47:42.599Z,101572.49
2018-06-28T06:50:12.878Z,101571.64
2018-06-28T06:52:43.151Z,101565.00
2018-06-28T06:55:13.479Z,101567.05
2018-06-28T06:57:43.864Z,101569.71
2018-06-28T07:00:14.094Z,101574.55
2018-06-28T07:02:44.357Z,101563.58
2018-06-28T07:05:14.651Z,101568.77
2018-06-28T07:07:44.893Z,101563.67
2018-06-28T07:10:15.173Z,101564.78
2018-06-28T07:12:45.416Z,101566.48
2018-06-28T07:15:15.721Z,101566.96
2018-06-28T07:17:46.058Z,101566.48
2018-06-28T07:20:16.377Z,101565.73
2018-06-28T07:22:46.672Z,101567.91
2018-06-28T07:25:17.115Z,101565.16
2018-06-28T07:27:47.416Z,101562.13
2018-06-28T07:30:17.725Z,101565.64
2018-06-28T07:32:48.215Z,101572.53
2018-06-28T07:35:18.502Z,101563.45
2018-06-28T07:37:48.904Z,101562.85
2018-06-28T07:40:19.418Z,101560.96
2018-06-28T07:42:49.703Z,101557.80
2018-06-28T07:45:19.999Z,101562.64
2018-06-28T07:47:50.276Z,101563.96
2018-06-28T07:50:20.583Z,101570.25
2018-06-28T07:52:50.885Z,101570.51
2018-06-28T07:55:20.934Z,101573.25
2018-06-28T07:57:51.021Z,101575.34
2018-06-28T08:00:21.077Z,101574.02
2018-06-28T08:02:51.218Z,101575.34
2018-06-28T08:05:21.596Z,101571.71
2018-06-28T08:07:51.843Z,101569.53
2018-06-28T08:10:22.111Z,101559.98
2018-06-28T08:12:52.385Z,101555.05
2018-06-28T08:15:22.649Z,101563.48
2018-06-28T08:17:52.881Z,101553.98
2018-06-28T08:20:23.123Z,101557.96
2018-06-28T08:22:53.405Z,101550.94
2018-06-28T08:25:23.682Z,101557.48
2018-06-28T08:27:53.729Z,101551.20
2018-06-28T08:30:23.693Z,101556.89
2018-06-28T08:32:53.831Z,101555.55
2018-06-28T08:35:24.125Z,101550.72
2018-06-28T08:37:54.454Z,101550.72
2018-06-28T08:40:24.738Z,101554.48
2018-06-28T08:42:55.015Z,101553.76
2018-06-28T08:45:25.320Z,101548.92
2018-06-28T08:47:55.611Z,101546.14
2018-06-28T08:50:25.851Z,101543.98
2018-06-28T08:52:56.144Z,101545.66
2018-06-28T08:55:26.424Z,101548.70
2018-06-28T08:57:56.789Z,101544.72
2018-06-28T09:00:26.951Z,101538.30
2018-06-28T09:02:57.230Z,101533.62
2018-06-28T09:05:27.527Z,101540.13
2018-06-28T09:07:57.817Z,101534.34
2018-06-28T09:10:28.053Z,101533.49
2018-06-28T09:12:58.314Z,101529.64
2018-06-28T09:15:28.810Z,101532.64
2018-06-28T09:17:59.126Z,101529.41
2018-06-28T09:20:29.435Z,101520.22
2018-06-28T09:22:59.758Z,101528.56
2018-06-28T09:25:29.964Z,101529.19
2018-06-28T09:28:00.233Z,101523.03
2018-06-28T09:30:30.535Z,101519.99
2018-06-28T09:33:00.789Z,101516.95
2018-06-28T09:35:31.094Z,101520.84
2018-06-28T09:38:01.351Z,101519.77
2018-06-28T09:40:31.649Z,101510.34
2018-06-28T09:43:01.933Z,101514.45
2018-06-28T09:45:32.226Z,101510.95
2018-06-28T09:48:02.459Z,101505.55
2018-06-28T09:50:32.746Z,101497.20
2018-06-28T09:53:03.057Z,101500.70
2018-06-28T09:55:33.318Z,101499.72
2018-06-28T09:58:03.713Z,101506.73
2018-06-28T10:00:39.163Z,101504.21
2018-06-28T10:03:09.432Z,101483.54
2018-06-28T10:05:39.546Z,101485.97
2018-06-28T10:08:10.487Z,101475.72
2018-06-28T10:10:41.218Z,101483.31
2018-06-28T10:13:12.561Z,101483.31
2018-06-28T10:15:42.798Z,101474.02
2018-06-28T10:18:13.172Z,101474.02
2018-06-28T10:20:43.335Z,101471.13
2018-06-28T10:23:13.724Z,101466.42
2018-06-28T10:25:44.041Z,101466.30
2018-06-28T10:28:14.351Z,101466.67
2018-06-28T10:30:44.590Z,101457.13
2018-06-28T10:33:14.833Z,101447.36
2018-06-28T10:35:45.109Z,101443.15
2018-06-28T10:38:15.373Z,101446.63
2018-06-28T10:40:45.623Z,101447.95
2018-06-28T10:43:15.964Z,101436.00
2018-06-28T10:45:46.266Z,101433.58
2018-06-28T10:48:16.662Z,101428.03
2018-06-28T10:50:46.916Z,101426.13
2018-06-28T10:53:17.193Z,101427.09
2018-06-28T10:55:47.485Z,101426.13
2018-06-28T10:58:17.778Z,101423.09
2018-06-28T11:00:48.051Z,101428.79
2018-06-28T11:03:18.146Z,101423.09
2018-06-28T11:05:48.331Z,101420.22
2018-06-28T11:08:18.677Z,101419.98
2018-06-28T11:10:48.918Z,101415.85
2018-06-28T11:13:19.198Z,101406.33
2018-06-28T11:15:49.604Z,101409.83
2018-06-28T11:18:19.554Z,101406.57
2018-06-28T11:20:49.691Z,101403.57
2018-06-28T11:23:19.967Z,101416.97
2018-06-28T11:25:50.421Z,101402.25
2018-06-28T11:28:20.690Z,101400.41
2018-06-28T11:30:50.939Z,101394.62
2018-06-28T11:33:21.303Z,101388.70
2018-06-28T11:35:51.566Z,101390.55
2018-06-28T11:38:21.847Z,101392.48
2018-06-28T11:40:52.138Z,101390.31
2018-06-28T11:43:22.178Z,101391.91
2018-06-28T11:45:52.137Z,101379.95
2018-06-28T11:48:22.387Z,101364.02
2018-06-28T11:50:52.408Z,101371.85
2018-06-28T11:53:22.538Z,101364.73
2018-06-28T11:55:52.641Z,101363.17
2018-06-28T11:58:22.819Z,101360.62
2018-06-28T12:00:53.116Z,101351.32
2018-06-28T12:03:23.406Z,101348.08
2018-06-28T12:05:53.425Z,101349.66
2018-06-28T12:08:23.597Z,101360.62
2018-06-28T12:10:53.889Z,101360.39
2018-06-28T12:13:24.162Z,101348.80
2018-06-28T12:15:54.423Z,101347.00
2018-06-28T12:18:24.430Z,101348.42
2018-06-28T12:20:54.592Z,101351.70
2018-06-28T12:23:24.896Z,101342.77
2018-06-28T12:25:55.232Z,101340.59
2018-06-28T12:28:25.535Z,101330.06
2018-06-28T12:30:55.817Z,101328.73
2018-06-28T12:33:26.171Z,101334.19
2018-06-28T12:36:01.355Z,101337.45
2018-06-28T12:38:32.658Z,101330.30
2018-06-28T12:41:02.941Z,101319.33
2018-06-28T12:43:33.228Z,101323.18
2018-06-28T12:46:03.508Z,101321.52
2018-06-28T12:48:33.802Z,101322.84
2018-06-28T12:51:04.071Z,101315.34
2018-06-28T12:53:34.361Z,101308.70
2018-06-28T12:56:30.646Z,101302.05
2018-06-28T12:59:02.235Z,101299.98
2018-06-28T13:01:32.697Z,101300.36
2018-06-28T13:04:02.962Z,101292.52
2018-06-28T13:06:32.981Z,101294.80
2018-06-28T13:09:03.468Z,101290.68
2018-06-28T13:11:33.755Z,101296.00
2018-06-28T13:14:04.218Z,101293.34
2018-06-28T13:16:34.575Z,101288.53
2018-06-28T13:19:04.903Z,101286.45
2018-06-28T13:21:35.136Z,101285.98
2018-06-28T13:24:05.596Z,101289.48
2018-06-28T13:26:35.874Z,101279.34
2018-06-28T13:29:06.367Z,101275.59
2018-06-28T13:31:36.765Z,101276.34
2018-06-28T13:34:07.068Z,101281.52
2018-06-28T13:36:37.426Z,101276.81
2018-06-28T13:39:08.402Z,101275.48
2018-06-28T13:41:39.050Z,101271.50
2018-06-28T13:44:10.076Z,101266.52
2018-06-28T13:46:40.418Z,101254.70
2018-06-28T13:49:10.904Z,101249.77
2018-06-28T13:51:41.555Z,101250.58
2018-06-28T13:54:11.826Z,101250.24
2018-06-28T13:56:42.255Z,101257.13
2018-06-28T13:59:12.559Z,101253.75
2018-06-28T14:01:42.859Z,101245.78
2018-06-28T14:04:13.237Z,101235.39
2018-06-28T14:06:43.538Z,101239.14
2018-06-28T14:09:14.040Z,101227.89
2018-06-28T14:11:44.620Z,101222.09
2018-06-28T14:14:14.994Z,101237.53
2018-06-28T14:16:45.324Z,101233.20
2018-06-28T14:19:15.664Z,101220.26
2018-06-28T14:21:46.145Z,101232.97
2018-06-28T14:24:16.622Z,101210.86
2018-06-28T14:26:46.956Z,101215.45
2018-06-28T14:29:17.254Z,101210.14
2018-06-28T14:31:48.217Z,101204.22
2018-06-28T14:34:18.519Z,101212.42
2018-06-28T14:36:49.342Z,101209.77
2018-06-28T14:39:19.703Z,101198.52
2018-06-28T14:41:50.256Z,101204.21
2018-06-28T14:44:20.644Z,101202.51
2018-06-28T14:46:50.876Z,101213.52
2018-06-28T14:49:21.220Z,101207.72
2018-06-28T14:51:51.586Z,101204.44
2018-06-28T14:54:21.869Z,101202.41
2018-06-28T14:56:52.217Z,101185.00
2018-06-28T14:59:22.463Z,101177.03
2018-06-28T15:01:52.814Z,101171.09
2018-06-28T15:04:23.129Z,101182.81
2018-06-28T15:06:53.406Z,101183.33
2018-06-28T15:09:23.511Z,101173.52
2018-06-28T15:11:53.649Z,101175.83
2018-06-28T15:14:23.695Z,101173.52
2018-06-28T15:16:54.025Z,101176.54
2018-06-28T15:19:24.486Z,101178.83
2018-06-28T15:21:54.758Z,101171.95
2018-06-28T15:24:25.073Z,101173.52
2018-06-28T15:26:55.362Z,101171.70
2018-06-28T15:29:26.569Z,101168.20
2018-06-28T15:31:57.060Z,101165.20
2018-06-28T15:34:27.330Z,101158.31
2018-06-28T15:36:57.644Z,101161.22
2018-06-28T15:39:28.314Z,101158.08
2018-06-28T15:41:58.572Z,101166.16
2018-06-28T15:44:28.885Z,101149.12
2018-06-28T15:46:59.240Z,101155.66
2018-06-28T15:49:29.499Z,101149.34
2018-06-28T15:51:59.963Z,101152.00
2018-06-28T15:54:30.246Z,101142.47
2018-06-28T15:57:00.653Z,101156.84
2018-06-28T15:59:31.710Z,101159.98
2018-06-28T16:02:02.264Z,101149.34
2018-06-28T16:04:32.512Z,101156.73
2018-06-28T16:07:02.873Z,101149.34
2018-06-28T16:09:32.909Z,101143.46
2018-06-28T16:12:02.847Z,101145.73
2018-06-28T16:14:32.947Z,101135.47
2018-06-28T16:17:03.276Z,101130.27
2018-06-28T16:19:33.499Z,101138.13
2018-06-28T16:22:03.849Z,101138.47
2018-06-28T16:24:34.224Z,101137.62
2018-06-28T16:27:04.482Z,101138.61
2018-06-28T16:29:34.725Z,101141.38
2018-06-28T16:32:05.076Z,101140.64
2018-06-28T16:34:35.353Z,101138.61
2018-06-28T16:37:05.706Z,101131.73
2018-06-28T16:39:35.977Z,101133.16
2018-06-28T16:42:06.352Z,101131.36
2018-06-28T16:44:36.691Z,101143.92
2018-06-28T16:47:06.971Z,101131.82
2018-06-28T16:49:37.223Z,101140.27
2018-06-28T16:52:09.178Z,101130.02
2018-06-28T16:54:39.424Z,101135.33
2018-06-28T16:57:09.703Z,101136.80
2018-06-28T16:59:40.064Z,101134.73
2018-06-28T17:02:10.255Z,101130.16
2018-06-28T17:04:40.554Z,101140.16
2018-06-28T17:07:10.843Z,101134.60
2018-06-28T17:09:41.158Z,101132.76
2018-06-28T17:12:11.503Z,101125.55
2018-06-28T17:14:41.864Z,101125.17
2018-06-28T17:17:12.251Z,101124.55
2018-06-28T17:19:42.662Z,101119.75
2018-06-28T17:22:12.933Z,101127.36
2018-06-28T17:24:43.237Z,101132.76
2018-06-28T17:27:13.556Z,101124.55
2018-06-28T17:29:43.591Z,101136.89
2018-06-28T17:32:13.842Z,101134.23
2018-06-28T17:34:44.149Z,101126.62
2018-06-28T17:37:14.552Z,101127.95
2018-06-28T17:39:45.364Z,101118.66
2018-06-28T17:42:15.735Z,101116.34
2018-06-28T17:44:46.065Z,101113.67
2018-06-28T17:47:16.431Z,101115.00
2018-06-28T17:49:46.884Z,101119.36
2018-06-28T17:52:17.139Z,101122.50
2018-06-28T17:54:47.808Z,101122.50
2018-06-28T17:57:18.009Z,101125.53
2018-06-28T17:59:48.158Z,101118.66
2018-06-28T18:02:18.387Z,101120.32
2018-06-28T18:04:48.835Z,101122.39
2018-06-28T18:07:19.161Z,101122.39
2018-06-28T18:09:49.865Z,101120.55
2018-06-28T18:12:21.354Z,101120.21
2018-06-28T18:14:52.161Z,101117.78
2018-06-28T18:17:22.542Z,101119.22
2018-06-28T18:19:52.918Z,101124.77
2018-06-28T18:22:23.188Z,101125.28
2018-06-28T18:24:53.647Z,101118.97
2018-06-28T18:27:23.931Z,101114.27
2018-06-28T18:29:54.463Z,101121.40
2018-06-28T18:32:24.896Z,101121.15
2018-06-28T18:34:55.008Z,101119.45
2018-06-28T18:37:25.394Z,101128.27
2018-06-28T18:39:55.655Z,101120.44
2018-06-28T18:42:26.019Z,101119.45
2018-06-28T18:44:56.306Z,101125.98
2018-06-28T18:47:26.602Z,101118.48
2018-06-28T18:49:56.880Z,101129.02
2018-06-28T18:52:27.408Z,101125.84
2018-06-28T18:54:57.798Z,101124.17
2018-06-28T18:57:28.137Z,101123.80
2018-06-28T18:59:58.247Z,101124.88
2018-06-28T19:02:28.566Z,101114.39
2018-06-28T19:04:58.812Z,101127.55
2018-06-28T19:07:29.138Z,101127.06
2018-06-28T19:10:04.595Z,101127.55
2018-06-28T19:12:34.721Z,101132.23
2018-06-28T19:15:10.368Z,101133.23
2018-06-28T19:17:40.639Z,101135.37
2018-06-28T19:20:10.991Z,101135.37
2018-06-28T19:22:46.666Z,101137.80
2018-06-28T19:25:16.999Z,101129.23
2018-06-28T19:27:47.284Z,101132.37
2018-06-28T19:30:24.111Z,101143.49
2018-06-28T19:32:56.666Z,101135.14
2018-06-28T19:35:27.000Z,101139.64
2018-06-28T19:37:57.330Z,101140.58
2018-06-28T19:40:32.825Z,101142.16
2018-06-28T19:43:06.329Z,101139.50
2018-06-28T19:45:37.220Z,101146.38
2018-06-28T19:48:11.298Z,101143.08
2018-06-28T19:51:49.677Z,101152.14
2018-06-28T19:54:28.779Z,101145.39
2018-06-28T19:57:01.576Z,101145.61
2018-06-28T19:59:39.801Z,101152.59
2018-06-28T20:02:17.759Z,101154.40
2018-06-28T20:04:49.625Z,101154.73
2018-06-28T20:07:22.911Z,101158.06
2018-06-28T20:09:56.606Z,101160.13
2018-06-28T20:12:34.052Z,101163.42
2018-06-28T20:15:12.329Z,101165.34
2018-06-28T20:18:01.512Z,101155.45
2018-06-28T20:20:35.670Z,101161.36
2018-06-28T20:23:09.938Z,101168.23
2018-06-28T20:25:43.453Z,101171.00
2018-06-28T20:28:21.215Z,101172.04
2018-06-28T20:30:57.674Z,101168.23
2018-06-28T20:33:36.312Z,101172.55
2018-06-28T20:36:08.540Z,101181.93
2018-06-28T20:38:41.477Z,101170.95
2018-06-28T20:41:15.215Z,101175.13
2018-06-28T20:43:47.568Z,101175.60
2018-06-28T20:46:20.967Z,101178.75
2018-06-28T20:48:54.468Z,101175.48
2018-06-28T20:51:27.822Z,101178.37
2018-06-28T20:53:59.947Z,101183.09
2018-06-28T20:56:33.774Z,101183.70
2018-06-28T20:59:06.054Z,101192.38
2018-06-28T21:01:39.860Z,101188.19
2018-06-28T21:04:12.972Z,101187.06
2018-06-28T21:06:44.976Z,101187.87
2018-06-28T21:09:18.888Z,101186.27
2018-06-28T21:11:52.384Z,101188.35
2018-06-28T21:14:25.675Z,101185.73
2018-06-28T21:16:59.203Z,101193.08
2018-06-28T21:19:33.315Z,101196.56
2018-06-28T21:22:07.068Z,101186.53
2018-06-28T21:24:40.725Z,101193.41
2018-06-28T21:27:15.045Z,101186.65
2018-06-28T21:29:47.905Z,101190.31
2018-06-28T21:32:21.047Z,101188.34
2018-06-28T21:34:54.090Z,101188.98
2018-06-28T21:37:25.546Z,101193.94
2018-06-28T21:39:56.035Z,101196.45
2018-06-28T21:42:28.117Z,101189.05
2018-06-28T21:44:58.241Z,101185.31
2018-06-28T21:47:28.509Z,101192.61
2018-06-28T21:50:01.922Z,101200.19
2018-06-28T21:52:35.754Z,101196.41
2018-06-28T21:55:07.806Z,101196.14
2018-06-28T21:57:41.381Z,101190.74
2018-06-28T22:00:29.494Z,101201.73
2018-06-28T22:03:04.200Z,101193.53
2018-06-28T22:05:38.312Z,101194.32
2018-06-28T22:08:11.945Z,101190.20
2018-06-28T22:10:45.468Z,101194.69
2018-06-28T22:13:19.164Z,101192.72
2018-06-28T22:15:53.229Z,101201.69
2018-06-28T22:18:23.544Z,101198.53
2018-06-28T22:20:53.831Z,101199.81
2018-06-28T22:23:24.099Z,101198.41
2018-06-28T22:25:54.218Z,101202.11
2018-06-28T22:28:24.353Z,101205.12
2018-06-28T22:30:54.611Z,101202.98
2018-06-28T22:33:24.902Z,101210.52
2018-06-28T22:35:55.158Z,101208.86
2018-06-28T22:38:25.458Z,101215.41
2018-06-28T22:40:55.778Z,101215.67
2018-06-28T22:43:26.054Z,101213.27
2018-06-28T22:45:56.426Z,101218.84
2018-06-28T22:48:26.683Z,101222.50
2018-06-28T22:50:56.943Z,101224.46
2018-06-28T22:53:27.234Z,101218.33
2018-06-28T22:55:57.489Z,101223.64
2018-06-28T22:58:27.768Z,101227.64
2018-06-28T23:00:58.082Z,101226.20
2018-06-28T23:03:28.350Z,101225.12
2018-06-28T23:05:58.701Z,101228.16
2018-06-28T23:08:29.119Z,101230.81
2018-06-28T23:10:59.387Z,101229.85
2018-06-28T23:13:29.643Z,101222.61
2018-06-28T23:15:59.923Z,101223.71
2018-06-28T23:18:30.252Z,101232.55
2018-06-28T23:21:00.542Z,101230.00
2018-06-28T23:23:30.870Z,101227.70
2018-06-28T23:26:01.186Z,101226.14
2018-06-28T23:28:31.463Z,101219.49
2018-06-28T23:31:01.768Z,101217.56
2018-06-28T23:33:31.789Z,101213.80
2018-06-28T23:36:01.932Z,101210.55
2018-06-28T23:38:32.193Z,101215.76
2018-06-28T23:41:02.459Z,101218.90
2018-06-28T23:43:32.719Z,101227.02
2018-06-28T23:46:02.959Z,101221.70
2018-06-28T23:48:33.261Z,101221.70
2018-06-28T23:51:03.551Z,101220.15
2018-06-28T23:53:33.859Z,101224.14
2018-06-28T23:56:04.097Z,101211.42
2018-06-28T23:58:34.381Z,101221.11
